createdAt,value
2018-11-27T00:01:09.474Z,93013.15
2018-11-27T00:03:43.035Z,93020.23
2018-11-27T00:06:10.914Z,93016.88
2018-11-27T00:08:38.684Z,93017.27
2018-11-27T00:11:06.173Z,93023.98
2018-11-27T00:13:33.585Z,93019.40
2018-11-27T00:16:00.977Z,93025.21
2018-11-27T00:18:28.395Z,93031.52
2018-11-27T00:20:55.786Z,93028.17
2018-11-27T00:23:23.225Z,93024.69
2018-11-27T00:25:50.625Z,93029.70
2018-11-27T00:28:18.040Z,93033.78
2018-11-27T00:30:45.478Z,93032.52
2018-11-27T00:33:13.637Z,93035.37
2018-11-27T00:35:41.086Z,93034.94
2018-11-27T00:38:08.512Z,93034.58
2018-11-27T00:40:36.040Z,93032.84
2018-11-27T00:43:04.502Z,93042.23
2018-11-27T00:45:31.956Z,93043.16
2018-11-27T00:47:59.357Z,93043.48
2018-11-27T00:50:26.699Z,93048.88
2018-11-27T00:52:54.300Z,93047.54
2018-11-27T00:55:22.026Z,93057.64
2018-11-27T00:57:50.382Z,93055.52
2018-11-27T01:00:20.032Z,93063.06
2018-11-27T01:02:48.248Z,93065.98
2018-11-27T01:05:16.919Z,93070.61
2018-11-27T01:07:45.941Z,93073.63
2018-11-27T01:10:17.430Z,93071.61
2018-11-27T01:12:44.932Z,93075.46
2018-11-27T01:15:13.156Z,93076.76
2018-11-27T01:17:44.888Z,93079.75
2018-11-27T01:20:20.117Z,93083.56
2018-11-27T01:22:47.672Z,93086.13
2018-11-27T01:25:15.139Z,93090.71
2018-11-27T01:27:43.198Z,93095.64
2018-11-27T01:30:14.655Z,93094.77
2018-11-27T01:32:42.234Z,93092.25
2018-11-27T01:35:12.002Z,93091.05
2018-11-27T01:37:39.436Z,93092.78
2018-11-27T01:40:17.326Z,93094.84
2018-11-27T01:42:45.614Z,93094.38
2018-11-27T01:45:14.134Z,93098.20
2018-11-27T01:47:41.561Z,93101.09
2018-11-27T01:50:11.886Z,93095.97
2018-11-27T01:52:39.326Z,93099.77
2018-11-27T01:55:09.480Z,93102.72
2018-11-27T01:57:37.090Z,93102.28
2018-11-27T02:00:07.620Z,93098.90
2018-11-27T02:02:34.997Z,93099.36
2018-11-27T02:05:02.497Z,93100.26
2018-11-27T02:07:29.859Z,93104.05
2018-11-27T02:09:57.292Z,93102.41
2018-11-27T02:12:24.748Z,93111.66
2018-11-27T02:14:52.164Z,93113.29
2018-11-27T02:17:19.548Z,93109.03
2018-11-27T02:19:46.902Z,93103.52
2018-11-27T02:22:14.347Z,93107.80
2018-11-27T02:24:41.716Z,93105.31
2018-11-27T02:27:09.102Z,93110.39
2018-11-27T02:29:36.501Z,93105.31
2018-11-27T02:32:03.968Z,93110.42
2018-11-27T02:34:31.356Z,93109.97
2018-11-27T02:36:58.787Z,93107.00
2018-11-27T02:39:26.249Z,93113.78
2018-11-27T02:41:53.702Z,93112.92
2018-11-27T02:44:21.312Z,93112.48
2018-11-27T02:46:48.766Z,93114.61
2018-11-27T02:49:16.157Z,93118.46
2018-11-27T02:51:44.278Z,93114.33
2018-11-27T02:54:11.703Z,93118.15
2018-11-27T02:56:39.141Z,93119.88
2018-11-27T02:59:06.533Z,93111.44
2018-11-27T03:01:33.996Z,93121.11
2018-11-27T03:04:01.402Z,93122.40
2018-11-27T03:06:28.801Z,93119.88
2018-11-27T03:08:56.236Z,93118.17
2018-11-27T03:11:25.133Z,93117.78
2018-11-27T03:13:52.586Z,93124.49
2018-11-27T03:16:20.005Z,93125.33
2018-11-27T03:18:47.416Z,93131.63
2018-11-27T03:21:14.826Z,93135.02
2018-11-27T03:23:42.236Z,93137.55
2018-11-27T03:26:10.202Z,93134.59
2018-11-27T03:28:37.652Z,93136.60
2018-11-27T03:31:05.093Z,93134.97
2018-11-27T03:33:32.477Z,93137.92
2018-11-27T03:35:59.936Z,93137.89
2018-11-27T03:38:27.403Z,93142.11
2018-11-27T03:40:54.797Z,93137.49
2018-11-27T03:43:22.187Z,93140.05
2018-11-27T03:45:50.531Z,93139.61
2018-11-27T03:48:17.926Z,93147.22
2018-11-27T03:50:45.330Z,93147.25
2018-11-27T03:53:12.721Z,93142.95
2018-11-27T03:55:40.164Z,93147.48
2018-11-27T03:58:07.559Z,93152.16
2018-11-27T04:00:35.004Z,93153.50
2018-11-27T04:03:05.509Z,93149.37
2018-11-27T04:05:32.948Z,93153.53
2018-11-27T04:08:00.312Z,93157.78
2018-11-27T04:10:29.064Z,93155.22
2018-11-27T04:12:56.476Z,93155.63
2018-11-27T04:15:23.909Z,93155.70
2018-11-27T04:17:51.408Z,93159.39
2018-11-27T04:20:18.919Z,93161.54
2018-11-27T04:22:46.359Z,93166.61
2018-11-27T04:25:15.048Z,93161.94
2018-11-27T04:27:43.088Z,93154.82
2018-11-27T04:30:11.936Z,93165.27
2018-11-27T04:32:39.348Z,93164.03
2018-11-27T04:35:07.672Z,93161.94
2018-11-27T04:37:35.134Z,93170.38
2018-11-27T04:40:02.605Z,93180.83
2018-11-27T04:42:30.014Z,93182.98
2018-11-27T04:44:57.458Z,93181.69
2018-11-27T04:47:25.737Z,93182.55
2018-11-27T04:49:53.134Z,93187.24
2018-11-27T04:52:20.612Z,93185.14
2018-11-27T04:54:48.024Z,93186.84
2018-11-27T04:57:16.409Z,93190.62
2018-11-27T04:59:44.562Z,93192.67
2018-11-27T05:02:12.042Z,93201.89
2018-11-27T05:04:39.560Z,93201.89
2018-11-27T05:07:07.040Z,93209.04
2018-11-27T05:09:35.049Z,93209.09
2018-11-27T05:12:02.451Z,93214.09
2018-11-27T05:14:30.679Z,93215.81
2018-11-27T05:16:58.068Z,93214.12
2018-11-27T05:19:25.507Z,93221.66
2018-11-27T05:21:52.928Z,93219.14
2018-11-27T05:24:20.324Z,93221.69
2018-11-27T05:26:48.291Z,93218.33
2018-11-27T05:29:15.816Z,93221.19
2018-11-27T05:31:43.605Z,93220.47
2018-11-27T05:34:11.006Z,93221.26
2018-11-27T05:36:38.460Z,93223.83
2018-11-27T05:39:08.260Z,93227.69
2018-11-27T05:41:35.889Z,93222.26
2018-11-27T05:44:04.427Z,93229.79
2018-11-27T05:46:32.362Z,93229.36
2018-11-27T05:48:59.909Z,93231.45
2018-11-27T05:51:27.318Z,93236.94
2018-11-27T05:53:54.728Z,93247.77
2018-11-27T05:56:22.184Z,93252.05
2018-11-27T05:58:49.571Z,93242.77
2018-11-27T06:01:17.544Z,93249.06
2018-11-27T06:03:45.002Z,93260.88
2018-11-27T06:06:12.452Z,93260.06
2018-11-27T06:08:40.571Z,93265.50
2018-11-27T06:11:08.636Z,93265.09
2018-11-27T06:13:36.126Z,93270.16
2018-11-27T06:16:03.644Z,93268.09
2018-11-27T06:18:31.049Z,93269.76
2018-11-27T06:20:58.477Z,93272.27
2018-11-27T06:23:25.897Z,93276.07
2018-11-27T06:25:53.489Z,93279.84
2018-11-27T06:28:20.947Z,93277.75
2018-11-27T06:30:48.370Z,93283.22
2018-11-27T06:33:15.808Z,93286.09
2018-11-27T06:35:43.647Z,93294.58
2018-11-27T06:38:11.459Z,93293.67
2018-11-27T06:40:39.887Z,93293.32
2018-11-27T06:43:08.678Z,93295.05
2018-11-27T06:45:36.988Z,93303.03
2018-11-27T06:48:04.464Z,93296.69
2018-11-27T06:50:32.138Z,93297.94
2018-11-27T06:53:00.369Z,93295.84
2018-11-27T06:55:27.757Z,93299.18
2018-11-27T06:57:55.211Z,93310.49
2018-11-27T07:00:25.033Z,93311.69
2018-11-27T07:02:52.898Z,93313.36
2018-11-27T07:05:20.444Z,93314.22
2018-11-27T07:07:47.874Z,93316.70
2018-11-27T07:10:19.456Z,93324.70
2018-11-27T07:12:48.256Z,93322.16
2018-11-27T07:15:19.027Z,93331.84
2018-11-27T07:17:46.526Z,93336.93
2018-11-27T07:20:14.089Z,93345.73
2018-11-27T07:22:41.594Z,93344.44
2018-11-27T07:25:11.518Z,93342.75
2018-11-27T07:27:39.091Z,93341.92
2018-11-27T07:30:09.952Z,93345.69
2018-11-27T07:32:37.441Z,93351.11
2018-11-27T07:35:06.387Z,93353.30
2018-11-27T07:37:33.923Z,93350.74
2018-11-27T07:40:03.343Z,93359.16
2018-11-27T07:42:29.662Z,93356.20
2018-11-27T07:44:57.136Z,93366.29
2018-11-27T07:47:24.498Z,93376.84
2018-11-27T07:49:51.948Z,93379.33
2018-11-27T07:52:19.877Z,93378.96
2018-11-27T07:54:47.316Z,93379.81
2018-11-27T07:57:14.727Z,93379.41
2018-11-27T07:59:43.135Z,93388.23
2018-11-27T08:02:10.558Z,93389.05
2018-11-27T08:04:38.009Z,93389.03
2018-11-27T08:07:06.299Z,93399.95
2018-11-27T08:09:33.860Z,93402.91
2018-11-27T08:12:01.413Z,93408.77
2018-11-27T08:14:28.868Z,93408.73
2018-11-27T08:16:56.272Z,93412.56
2018-11-27T08:19:24.647Z,93417.21
2018-11-27T08:21:52.148Z,93418.49
2018-11-27T08:24:19.582Z,93420.14
2018-11-27T08:26:47.678Z,93427.36
2018-11-27T08:29:15.092Z,93433.68
2018-11-27T08:31:42.537Z,93435.34
2018-11-27T08:34:09.973Z,93440.83
2018-11-27T08:36:37.363Z,93445.87
2018-11-27T08:39:07.837Z,93442.48
2018-11-27T08:41:40.236Z,93448.36
2018-11-27T08:44:02.802Z,93442.01
2018-11-27T08:46:31.038Z,93447.44
2018-11-27T08:48:58.447Z,93444.90
2018-11-27T08:51:25.947Z,93445.35
2018-11-27T08:53:53.366Z,93452.91
2018-11-27T08:56:20.830Z,93454.17
2018-11-27T08:58:48.304Z,93462.58
2018-11-27T09:01:16.247Z,93460.03
2018-11-27T09:03:46.475Z,93462.52
2018-11-27T09:06:11.125Z,93460.86
2018-11-27T09:08:38.497Z,93470.11
2018-11-27T09:11:05.984Z,93472.64
2018-11-27T09:13:33.378Z,93468.80
2018-11-27T09:16:00.777Z,93470.48
2018-11-27T09:18:28.198Z,93472.59
2018-11-27T09:20:55.612Z,93479.33
2018-11-27T09:23:23.038Z,93480.57
2018-11-27T09:25:50.568Z,93477.59
2018-11-27T09:28:18.019Z,93483.89
2018-11-27T09:30:45.503Z,93486.77
2018-11-27T09:33:12.928Z,93487.64
2018-11-27T09:35:40.353Z,93487.20
2018-11-27T09:38:08.039Z,93488.89
2018-11-27T09:40:35.595Z,93497.67
2018-11-27T09:43:03.064Z,93496.48
2018-11-27T09:45:30.668Z,93491.36
2018-11-27T09:47:58.587Z,93493.91
2018-11-27T09:50:26.029Z,93491.40
2018-11-27T09:52:53.614Z,93494.82
2018-11-27T09:55:23.205Z,93491.84
2018-11-27T09:57:50.556Z,93499.41
2018-11-27T10:00:22.908Z,93499.87
2018-11-27T10:02:51.365Z,93494.42
2018-11-27T10:05:18.819Z,93501.58
2018-11-27T10:07:46.276Z,93496.97
2018-11-27T10:10:15.201Z,93499.84
2018-11-27T10:12:42.660Z,93493.05
2018-11-27T10:15:12.669Z,93498.47
2018-11-27T10:17:40.071Z,93499.27
2018-11-27T10:20:09.690Z,93497.95
2018-11-27T10:22:37.092Z,93503.88
2018-11-27T10:25:05.782Z,93510.15
2018-11-27T10:27:33.159Z,93503.80
2018-11-27T10:30:00.590Z,93509.36
2018-11-27T10:32:28.109Z,93509.34
2018-11-27T10:34:55.599Z,93510.65
2018-11-27T10:37:23.604Z,93514.76
2018-11-27T10:39:51.169Z,93504.69
2018-11-27T10:42:18.564Z,93502.17
2018-11-27T10:44:46.011Z,93499.23
2018-11-27T10:47:13.560Z,93506.81
2018-11-27T10:49:40.951Z,93503.83
2018-11-27T10:52:08.394Z,93505.09
2018-11-27T10:54:35.816Z,93505.52
2018-11-27T10:57:03.225Z,93506.38
2018-11-27T10:59:30.609Z,93504.71
2018-11-27T11:02:03.739Z,93508.91
2018-11-27T11:04:31.149Z,93510.20
2018-11-27T11:06:58.565Z,93516.11
2018-11-27T11:09:25.961Z,93517.44
2018-11-27T11:11:53.384Z,93524.24
2018-11-27T11:14:20.883Z,93519.59
2018-11-27T11:16:48.270Z,93522.55
2018-11-27T11:19:18.381Z,93523.02
2018-11-27T11:21:43.178Z,93524.69
2018-11-27T11:24:10.619Z,93530.16
2018-11-27T11:26:38.009Z,93527.23
2018-11-27T11:29:05.770Z,93532.75
2018-11-27T11:31:33.194Z,93520.90
2018-11-27T11:34:00.658Z,93530.63
2018-11-27T11:36:28.086Z,93532.36
2018-11-27T11:38:55.509Z,93538.31
2018-11-27T11:41:22.890Z,93535.36
2018-11-27T11:43:50.310Z,93536.67
2018-11-27T11:46:17.718Z,93542.98
2018-11-27T11:48:45.135Z,93540.05
2018-11-27T11:51:12.543Z,93537.50
2018-11-27T11:53:40.003Z,93537.89
2018-11-27T11:56:08.235Z,93543.34
2018-11-27T11:58:35.622Z,93542.05
2018-11-27T12:01:03.097Z,93542.02
2018-11-27T12:03:30.529Z,93546.63
2018-11-27T12:07:22.413Z,93547.86
2018-11-27T12:09:49.878Z,93546.58
2018-11-27T12:12:18.178Z,93550.38
2018-11-27T12:14:45.634Z,93551.27
2018-11-27T12:17:13.110Z,93549.98
2018-11-27T12:19:40.514Z,93552.09
2018-11-27T12:22:08.921Z,93550.45
2018-11-27T12:24:36.499Z,93554.66
2018-11-27T12:27:04.219Z,93554.22
2018-11-27T12:29:31.662Z,93551.22
2018-11-27T12:31:59.884Z,93549.03
2018-11-27T12:34:28.197Z,93558.80
2018-11-27T12:36:55.657Z,93558.84
2018-11-27T12:39:23.031Z,93562.22
2018-11-27T12:41:50.649Z,93571.48
2018-11-27T12:44:18.229Z,93563.90
2018-11-27T12:46:45.690Z,93568.11
2018-11-27T12:49:13.096Z,93565.50
2018-11-27T12:51:40.678Z,93572.22
2018-11-27T12:54:08.140Z,93569.31
2018-11-27T12:56:35.708Z,93565.09
2018-11-27T12:59:03.160Z,93574.39
2018-11-27T13:01:30.644Z,93580.29
2018-11-27T13:03:58.087Z,93582.78
2018-11-27T13:06:27.785Z,93581.94
2018-11-27T13:08:53.039Z,93582.35
2018-11-27T13:11:20.435Z,93586.99
2018-11-27T13:13:47.921Z,93584.06
2018-11-27T13:16:15.331Z,93580.27
2018-11-27T13:18:42.721Z,93576.48
2018-11-27T13:21:10.361Z,93575.66
2018-11-27T13:23:37.812Z,93585.79
2018-11-27T13:26:05.529Z,93586.63
2018-11-27T13:28:33.004Z,93587.91
2018-11-27T13:31:03.095Z,93587.45
2018-11-27T13:33:34.350Z,93598.85
2018-11-27T13:36:01.739Z,93597.58
2018-11-27T13:38:29.137Z,93595.94
2018-11-27T13:40:56.597Z,93595.52
2018-11-27T13:43:27.149Z,93590.09
2018-11-27T13:45:55.679Z,93597.70
2018-11-27T13:48:23.165Z,93603.59
2018-11-27T13:50:50.584Z,93605.28
2018-11-27T13:53:18.060Z,93603.98
2018-11-27T13:55:45.465Z,93609.94
2018-11-27T13:58:12.845Z,93609.97
2018-11-27T14:00:40.245Z,93612.09
2018-11-27T14:03:10.789Z,93611.65
2018-11-27T14:05:35.275Z,93612.08
2018-11-27T14:08:02.731Z,93614.21
2018-11-27T14:10:30.141Z,93613.39
2018-11-27T14:12:57.625Z,93611.28
2018-11-27T14:15:25.396Z,93615.91
2018-11-27T14:17:54.016Z,93622.66
2018-11-27T14:20:21.445Z,93631.86
2018-11-27T14:22:49.591Z,93617.91
2018-11-27T14:25:17.038Z,93618.71
2018-11-27T14:27:44.880Z,93620.36
2018-11-27T14:30:17.595Z,93632.23
2018-11-27T14:32:45.223Z,93637.31
2018-11-27T14:35:13.401Z,93645.78
2018-11-27T14:37:40.854Z,93640.34
2018-11-27T14:40:15.825Z,93639.52
2018-11-27T14:42:43.455Z,93635.31
2018-11-27T14:45:15.818Z,93634.86
2018-11-27T14:47:43.998Z,93653.00
2018-11-27T14:50:11.868Z,93650.08
2018-11-27T14:52:39.314Z,93651.37
2018-11-27T14:55:14.142Z,93659.36
2018-11-27T14:57:41.529Z,93664.02
2018-11-27T15:00:10.890Z,93663.59
2018-11-27T15:02:38.303Z,93663.60
2018-11-27T15:05:08.430Z,93670.75
2018-11-27T15:07:35.809Z,93671.16
2018-11-27T15:10:03.816Z,93674.92
2018-11-27T15:12:31.225Z,93666.91
2018-11-27T15:14:58.676Z,93678.70
2018-11-27T15:17:26.157Z,93675.33
2018-11-27T15:19:53.696Z,93672.38
2018-11-27T15:22:21.100Z,93678.72
2018-11-27T15:24:48.557Z,93695.61
2018-11-27T15:27:16.042Z,93693.52
2018-11-27T15:29:43.446Z,93695.64
2018-11-27T15:32:10.972Z,93698.98
2018-11-27T15:34:38.388Z,93695.20
2018-11-27T15:37:06.071Z,93691.86
2018-11-27T15:39:33.545Z,93693.12
2018-11-27T15:42:01.021Z,93707.42
2018-11-27T15:44:28.451Z,93706.17
2018-11-27T15:46:55.970Z,93712.05
2018-11-27T15:49:23.473Z,93718.81
2018-11-27T15:51:51.723Z,93714.17
2018-11-27T15:54:19.124Z,93717.55
2018-11-27T15:56:46.706Z,93721.33
2018-11-27T15:59:14.772Z,93718.39
2018-11-27T16:01:42.261Z,93717.11
2018-11-27T16:04:09.773Z,93717.53
2018-11-27T16:06:37.281Z,93721.73
2018-11-27T16:09:08.872Z,93726.80
2018-11-27T16:11:37.592Z,93725.54
2018-11-27T16:14:06.363Z,93723.86
2018-11-27T16:16:33.860Z,93729.75
2018-11-27T16:19:02.057Z,93725.55
2018-11-27T16:21:29.433Z,93733.95
2018-11-27T16:23:56.974Z,93738.57
2018-11-27T16:26:25.160Z,93741.13
2018-11-27T16:28:52.624Z,93742.80
2018-11-27T16:31:20.652Z,93751.22
2018-11-27T16:33:48.151Z,93751.65
2018-11-27T16:36:15.703Z,93762.16
2018-11-27T16:38:43.197Z,93760.05
2018-11-27T16:41:10.623Z,93762.15
2018-11-27T16:43:38.223Z,93765.09
2018-11-27T16:46:05.813Z,93770.56
2018-11-27T16:48:33.273Z,93768.47
2018-11-27T16:51:00.832Z,93767.20
2018-11-27T16:53:28.487Z,93768.05
2018-11-27T16:55:56.056Z,93767.61
2018-11-27T16:58:23.658Z,93766.34
2018-11-27T17:00:51.758Z,93768.86
2018-11-27T17:03:19.141Z,93772.23
2018-11-27T17:05:46.526Z,93762.14
2018-11-27T17:08:13.983Z,93770.55
2018-11-27T17:10:43.378Z,93773.91
2018-11-27T17:13:11.869Z,93775.63
2018-11-27T17:15:39.361Z,93784.47
2018-11-27T17:18:08.477Z,93779.42
2018-11-27T17:20:37.579Z,93785.72
2018-11-27T17:23:07.707Z,93788.67
2018-11-27T17:25:35.106Z,93789.93
2018-11-27T17:28:08.131Z,93797.91
2018-11-27T17:30:42.219Z,93791.59
2018-11-27T17:33:18.526Z,93791.61
2018-11-27T17:35:46.517Z,93797.51
2018-11-27T17:38:14.063Z,93806.75
2018-11-27T17:40:42.243Z,93805.50
2018-11-27T17:43:09.771Z,93805.06
2018-11-27T17:45:37.359Z,93818.56
2018-11-27T17:48:05.454Z,93814.33
2018-11-27T17:50:32.994Z,93813.92
2018-11-27T17:53:00.460Z,93814.34
2018-11-27T17:55:27.908Z,93818.13
2018-11-27T17:57:55.387Z,93807.62
2018-11-27T18:00:24.677Z,93808.02
2018-11-27T18:02:54.368Z,93809.30
2018-11-27T18:05:21.967Z,93803.41
2018-11-27T18:07:50.143Z,93805.92
2018-11-27T18:10:17.707Z,93811.79
2018-11-27T18:12:45.283Z,93813.92
2018-11-27T18:15:14.224Z,93818.53
2018-11-27T18:17:41.712Z,93818.11
2018-11-27T18:20:10.482Z,93818.13
2018-11-27T18:22:38.618Z,93820.22
2018-11-27T18:25:08.298Z,93826.55
2018-11-27T18:27:35.734Z,93829.48
2018-11-27T18:30:04.723Z,93827.37
2018-11-27T18:32:32.285Z,93822.73
2018-11-27T18:34:59.726Z,93827.83
2018-11-27T18:37:27.284Z,93825.71
2018-11-27T18:39:54.708Z,93829.50
2018-11-27T18:42:22.910Z,93833.27
2018-11-27T18:44:50.512Z,93835.79
2018-11-27T18:47:18.497Z,93837.47
2018-11-27T18:49:46.788Z,93841.23
2018-11-27T18:52:15.174Z,93835.36
2018-11-27T18:54:42.607Z,93830.71
2018-11-27T18:57:10.687Z,93834.11
2018-11-27T18:59:38.788Z,93835.80
2018-11-27T19:02:06.534Z,93832.03
2018-11-27T19:04:34.112Z,93834.56
2018-11-27T19:07:02.923Z,93840.00
2018-11-27T19:09:30.475Z,93845.05
2018-11-27T19:11:58.717Z,93849.23
2018-11-27T19:14:26.263Z,93847.96
2018-11-27T19:16:54.139Z,93849.23
2018-11-27T19:19:21.675Z,93848.79
2018-11-27T19:21:49.388Z,93850.47
2018-11-27T19:24:16.965Z,93861.84
2018-11-27T19:26:44.524Z,93865.63
2018-11-27T19:29:12.048Z,93857.22
2018-11-27T19:31:40.389Z,93850.48
2018-11-27T19:34:08.066Z,93855.09
2018-11-27T19:36:35.644Z,93855.11
2018-11-27T19:39:03.903Z,93869.87
2018-11-27T19:41:31.382Z,93870.68
2018-11-27T19:43:58.903Z,93873.63
2018-11-27T19:48:53.298Z,93878.23
2018-11-27T19:51:14.788Z,93871.50
2018-11-27T19:53:42.208Z,93876.95
2018-11-27T19:56:09.944Z,93881.18
2018-11-27T19:58:37.384Z,93883.33
2018-11-27T20:01:06.550Z,93887.09
2018-11-27T20:03:34.082Z,93890.06
2018-11-27T20:06:02.310Z,93885.42
2018-11-27T20:08:29.874Z,93883.30
2018-11-27T20:10:57.344Z,93890.89
2018-11-27T20:13:24.862Z,93881.62
2018-11-27T20:15:52.482Z,93882.88
2018-11-27T20:18:19.994Z,93881.23
2018-11-27T20:20:47.496Z,93880.37
2018-11-27T20:23:15.044Z,93884.17
2018-11-27T20:25:42.983Z,93883.75
2018-11-27T20:28:10.450Z,93889.20
2018-11-27T20:30:39.503Z,93889.20
2018-11-27T20:33:07.045Z,93886.68
2018-11-27T20:35:34.609Z,93894.27
2018-11-27T20:38:04.359Z,93897.19
2018-11-27T20:40:32.019Z,93906.02
2018-11-27T20:42:59.675Z,93906.02
2018-11-27T20:45:27.484Z,93906.47
2018-11-27T20:47:58.699Z,93906.47
2018-11-27T20:50:26.285Z,93911.51
2018-11-27T20:52:54.369Z,93917.38
2018-11-27T20:55:22.144Z,93916.95
2018-11-27T20:57:52.285Z,93911.48
2018-11-27T21:00:23.001Z,93906.85
2018-11-27T21:02:51.783Z,93901.41
2018-11-27T21:05:19.376Z,93906.05
2018-11-27T21:07:47.638Z,93899.31
2018-11-27T21:10:15.073Z,93902.67
2018-11-27T21:12:43.388Z,93906.47
2018-11-27T21:15:13.932Z,93911.09
2018-11-27T21:17:41.427Z,93918.67
2018-11-27T21:20:11.017Z,93919.09
2018-11-27T21:22:38.499Z,93914.05
2018-11-27T21:25:08.763Z,93912.37
2018-11-27T21:27:36.209Z,93927.55
2018-11-27T21:30:07.419Z,93920.81
2018-11-27T21:32:34.953Z,93929.67
2018-11-27T21:35:03.094Z,93929.26
2018-11-27T21:37:30.700Z,93926.29
2018-11-27T21:39:58.509Z,93929.62
2018-11-27T21:42:26.029Z,93930.86
2018-11-27T21:44:53.630Z,93934.20
2018-11-27T21:47:21.129Z,93936.30
2018-11-27T21:49:49.220Z,93932.97
2018-11-27T21:52:16.927Z,93936.39
2018-11-27T21:54:44.567Z,93935.61
2018-11-27T21:57:12.128Z,93934.72
2018-11-27T21:59:39.858Z,93939.31
2018-11-27T22:02:07.482Z,93938.86
2018-11-27T22:04:34.910Z,93940.11
2018-11-27T22:07:03.031Z,93937.17
2018-11-27T22:09:30.857Z,93935.50
2018-11-27T22:11:58.493Z,93935.97
2018-11-27T22:14:26.186Z,93934.30
2018-11-27T22:16:54.212Z,93941.53
2018-11-27T22:19:21.788Z,93934.34
2018-11-27T22:21:49.858Z,93928.89
2018-11-27T22:24:17.309Z,93937.30
2018-11-27T22:26:45.522Z,93929.73
2018-11-27T22:29:12.946Z,93924.73
2018-11-27T22:31:40.608Z,93931.05
2018-11-27T22:34:11.693Z,93929.75
2018-11-27T22:36:39.324Z,93936.49
2018-11-27T22:39:12.994Z,93938.15
2018-11-27T22:41:41.493Z,93941.91
2018-11-27T22:44:09.705Z,93937.23
2018-11-27T22:46:37.428Z,93943.97
2018-11-27T22:49:05.755Z,93935.95
2018-11-27T22:51:33.747Z,93943.06
2018-11-27T22:54:02.208Z,93942.68
2018-11-27T22:56:29.612Z,93945.22
2018-11-27T22:58:57.043Z,93951.48
2018-11-27T23:01:24.456Z,93951.50
2018-11-27T23:03:51.942Z,93951.08
2018-11-27T23:06:20.052Z,93951.56
2018-11-27T23:08:48.117Z,93953.63
2018-11-27T23:11:15.566Z,93948.59
2018-11-27T23:13:43.159Z,93951.11
2018-11-27T23:16:10.558Z,93947.36
2018-11-27T23:18:38.585Z,93946.09
2018-11-27T23:21:06.065Z,93954.08
2018-11-27T23:23:33.487Z,93946.50
2018-11-27T23:26:00.938Z,93954.05
2018-11-27T23:28:28.434Z,93954.06
2018-11-27T23:30:55.975Z,93949.45
2018-11-27T23:33:23.358Z,93949.46
2018-11-27T23:35:51.518Z,93943.95
2018-11-27T23:38:19.098Z,93944.80
2018-11-27T23:40:46.544Z,93943.56
2018-11-27T23:43:14.119Z,93939.78
2018-11-27T23:45:41.585Z,93941.04
2018-11-27T23:48:09.638Z,93938.52
2018-11-27T23:50:37.129Z,93938.97
2018-11-27T23:53:04.958Z,93940.63
2018-11-27T23:55:32.353Z,93942.70
2018-11-27T23:57:59.854Z,93945.21
